Time;durP1;ratioP1;P1;durP2;ratioP2;P2;SDS_P1;SDS_P2;PMS_P1;PMS_P2;Temp;Humidity;BMP_temperature;BMP_pressure;BME280_temperature;BME280_humidity;BME280_pressure;Samples;Min_cycle;Max_cycle;Signal;HPM_P1;HPM_P2
2023/06/01 00:01:40;;;;;;;4.80;1.67;;;12.00;99.90;;;;;;5033144;28;20060;-72
2023/06/01 00:04:07;;;;;;;4.70;1.83;;;12.00;99.90;;;;;;5028134;28;20041;-72
2023/06/01 00:06:32;;;;;;;8.70;1.98;;;12.00;99.90;;;;;;5028605;28;20413;-73
2023/06/01 00:08:58;;;;;;;7.13;1.77;;;12.00;99.90;;;;;;5011330;28;20041;-72
2023/06/01 00:11:25;;;;;;;7.95;1.63;;;12.00;99.90;;;;;;5031116;28;20208;-73
2023/06/01 00:13:51;;;;;;;4.53;1.65;;;12.00;99.90;;;;;;5045386;28;20033;-72
2023/06/01 00:16:16;;;;;;;4.82;1.33;;;12.00;99.90;;;;;;5046515;28;20049;-72
2023/06/01 00:18:43;;;;;;;5.53;1.83;;;12.00;99.90;;;;;;5047171;28;20051;-72
2023/06/01 00:21:08;;;;;;;5.70;1.88;;;12.00;99.90;;;;;;5027676;28;20520;-72
2023/06/01 00:23:34;;;;;;;3.58;1.63;;;12.00;99.90;;;;;;5019886;28;20049;-72
2023/06/01 00:26:00;;;;;;;7.75;1.83;;;12.00;99.90;;;;;;5027270;28;20045;-72
2023/06/01 00:28:26;;;;;;;5.25;1.50;;;12.00;99.90;;;;;;5045780;28;20040;-72
2023/06/01 00:30:53;;;;;;;11.70;1.88;;;12.00;99.90;;;;;;5027791;28;20037;-72
2023/06/01 00:33:19;;;;;;;5.53;1.70;;;12.10;99.90;;;;;;5043964;28;20086;-72
2023/06/01 00:35:45;;;;;;;3.75;1.58;;;12.00;99.90;;;;;;5044590;28;20043;-72
2023/06/01 00:38:11;;;;;;;6.25;1.83;;;11.90;99.90;;;;;;5011677;28;20029;-72
2023/06/01 00:40:37;;;;;;;4.88;2.05;;;12.00;99.90;;;;;;5022785;28;20033;-72
2023/06/01 00:43:02;;;;;;;4.85;1.65;;;11.90;99.90;;;;;;5045519;28;20048;-72
2023/06/01 00:45:28;;;;;;;5.38;1.83;;;11.90;99.90;;;;;;5027345;28;20116;-72
2023/06/01 00:47:54;;;;;;;3.03;1.50;;;11.90;99.90;;;;;;5025521;28;20044;-72
2023/06/01 00:50:21;;;;;;;5.15;1.92;;;11.90;99.90;;;;;;5043659;28;20032;-72
2023/06/01 00:52:50;;;;;;;6.10;2.10;;;11.90;99.90;;;;;;5020231;28;20086;-72
2023/06/01 00:55:16;;;;;;;7.15;2.13;;;11.90;99.90;;;;;;5041993;28;20037;-72
2023/06/01 00:57:43;;;;;;;5.68;1.75;;;11.90;99.90;;;;;;5011987;28;20036;-72
2023/06/01 01:00:10;;;;;;;6.22;1.80;;;11.90;99.90;;;;;;5026597;28;20033;-72
2023/06/01 01:02:40;;;;;;;5.95;2.05;;;11.90;99.90;;;;;;5038300;28;20130;-72
2023/06/01 01:05:12;;;;;;;9.18;1.75;;;11.80;99.90;;;;;;5041831;28;20040;-72
2023/06/01 01:07:43;;;;;;;3.95;1.90;;;11.80;99.90;;;;;;5008585;28;20045;-72
2023/06/01 01:10:31;;;;;;;6.25;1.60;;;11.80;99.90;;;;;;5010421;28;20120;-72
2023/06/01 01:13:14;;;;;;;6.35;2.03;;;11.80;99.90;;;;;;5007757;28;20124;-73
2023/06/01 01:15:55;;;;;;;3.42;1.42;;;11.70;99.90;;;;;;5038908;28;20060;-72
2023/06/01 01:18:32;;;;;;;5.38;1.50;;;11.70;99.90;;;;;;5016128;28;20036;-72
2023/06/01 01:21:01;;;;;;;4.30;1.50;;;11.70;99.90;;;;;;5018652;28;20413;-72
2023/06/01 01:23:38;;;;;;;5.38;1.73;;;11.70;99.90;;;;;;5040674;28;20365;-72
2023/06/01 01:26:31;;;;;;;5.20;1.65;;;11.70;99.90;;;;;;5023159;28;20052;-72
2023/06/01 01:29:05;;;;;;;8.68;2.10;;;11.70;99.90;;;;;;5023704;28;20083;-72
2023/06/01 01:31:33;;;;;;;3.88;1.85;;;11.70;99.90;;;;;;5021715;28;20055;-72
2023/06/01 01:34:00;;;;;;;7.68;1.60;;;11.70;99.90;;;;;;5023858;28;20401;-73
2023/06/01 01:36:26;;;;;;;3.88;1.50;;;11.70;99.90;;;;;;5026652;28;20083;-72
2023/06/01 01:38:52;;;;;;;4.93;1.58;;;11.70;99.90;;;;;;5027174;28;20240;-72
2023/06/01 01:41:19;;;;;;;6.55;1.50;;;11.70;99.90;;;;;;5029716;28;20083;-73
2023/06/01 01:43:45;;;;;;;6.93;1.98;;;11.70;99.90;;;;;;5029650;28;20433;-72
2023/06/01 01:46:27;;;;;;;4.97;2.13;;;11.70;99.90;;;;;;5023566;28;20048;-73
2023/06/01 01:49:04;;;;;;;5.88;1.63;;;11.70;99.90;;;;;;5043501;28;20033;-72
2023/06/01 01:51:42;;;;;;;7.30;1.92;;;11.70;99.90;;;;;;5024259;28;20413;-73
2023/06/01 01:54:09;;;;;;;7.32;1.98;;;11.70;99.90;;;;;;5007227;28;20505;-73
2023/06/01 01:56:36;;;;;;;6.55;1.90;;;11.70;99.90;;;;;;5023654;28;20082;-72
2023/06/01 01:59:03;;;;;;;9.75;2.35;;;11.70;99.90;;;;;;5043996;28;20033;-73
2023/06/01 02:01:29;;;;;;;5.25;1.92;;;11.70;99.90;;;;;;5041397;28;20561;-72
2023/06/01 02:04:03;;;;;;;6.03;1.90;;;11.70;99.90;;;;;;5039628;28;20041;-72
2023/06/01 02:06:30;;;;;;;6.10;1.92;;;11.60;99.90;;;;;;5002699;28;20048;-73
2023/06/01 02:08:56;;;;;;;4.40;1.80;;;11.70;99.90;;;;;;5020677;28;20052;-72
2023/06/01 02:11:21;;;;;;;4.72;1.70;;;11.70;99.90;;;;;;5024653;28;20033;-73
2023/06/01 02:13:47;;;;;;;6.20;1.75;;;11.70;99.90;;;;;;5044193;28;20032;-73
2023/06/01 02:16:13;;;;;;;5.45;1.80;;;11.70;99.90;;;;;;5022449;28;20029;-73
2023/06/01 02:18:41;;;;;;;8.13;2.00;;;11.60;99.90;;;;;;5026002;28;20098;-73
2023/06/01 02:21:08;;;;;;;6.20;1.67;;;11.60;99.90;;;;;;5022951;28;20053;-73
2023/06/01 02:23:34;;;;;;;4.78;1.52;;;11.60;99.90;;;;;;5021180;28;20125;-73
2023/06/01 02:26:00;;;;;;;4.57;2.20;;;11.60;99.90;;;;;;5017861;28;20045;-73
2023/06/01 02:28:26;;;;;;;4.18;1.60;;;11.60;99.90;;;;;;5023215;28;20037;-72
2023/06/01 02:30:51;;;;;;;6.15;1.95;;;11.50;99.90;;;;;;5020729;28;20046;-72
2023/06/01 02:33:17;;;;;;;5.10;1.80;;;11.60;99.90;;;;;;5019864;28;20068;-73
2023/06/01 02:35:42;;;;;;;4.97;1.70;;;11.50;99.90;;;;;;5015551;28;20033;-73
2023/06/01 02:38:08;;;;;;;7.82;1.98;;;11.60;99.90;;;;;;5022855;28;20422;-73
2023/06/01 02:40:33;;;;;;;3.85;1.67;;;11.50;99.90;;;;;;5021649;28;20042;-73
2023/06/01 02:42:59;;;;;;;3.83;1.80;;;11.60;99.90;;;;;;5022848;28;20081;-73
2023/06/01 02:45:25;;;;;;;7.13;1.80;;;11.50;99.90;;;;;;5022902;28;20030;-73
2023/06/01 02:47:50;;;;;;;8.32;2.30;;;11.50;99.90;;;;;;5006748;28;20682;-73
2023/06/01 02:50:16;;;;;;;4.13;1.55;;;11.50;99.90;;;;;;5023823;28;20305;-73
2023/06/01 02:52:42;;;;;;;5.80;2.03;;;11.50;99.90;;;;;;5021993;28;20041;-73
2023/06/01 02:55:08;;;;;;;4.85;1.67;;;11.50;99.90;;;;;;5026736;28;20037;-73
2023/06/01 02:57:33;;;;;;;4.30;1.80;;;11.50;99.90;;;;;;5024134;28;20084;-73
2023/06/01 02:59:59;;;;;;;6.90;1.77;;;11.50;99.90;;;;;;5032138;28;20033;-73
2023/06/01 03:02:26;;;;;;;7.30;1.85;;;11.50;99.90;;;;;;5025064;28;20048;-73
2023/06/01 03:04:52;;;;;;;6.95;1.92;;;11.50;99.90;;;;;;5029185;28;20044;-73
2023/06/01 03:07:18;;;;;;;5.07;1.50;;;11.50;99.90;;;;;;5010671;28;20029;-73
2023/06/01 03:09:44;;;;;;;5.40;1.88;;;11.60;99.90;;;;;;5028764;28;20436;-73
2023/06/01 03:12:10;;;;;;;3.50;1.55;;;11.50;99.90;;;;;;5029528;28;20041;-73
2023/06/01 03:14:35;;;;;;;6.40;1.80;;;11.50;99.90;;;;;;5028761;28;20652;-73
2023/06/01 03:17:01;;;;;;;6.72;1.83;;;11.50;99.90;;;;;;5027621;28;20422;-73
2023/06/01 03:19:27;;;;;;;7.35;2.03;;;11.50;99.90;;;;;;5028887;28;20044;-73
2023/06/01 03:21:52;;;;;;;4.82;1.92;;;11.50;99.90;;;;;;5005774;28;20043;-73
2023/06/01 03:24:18;;;;;;;6.38;1.63;;;11.50;99.90;;;;;;5024435;28;20080;-73
2023/06/01 03:26:44;;;;;;;7.57;2.05;;;11.50;99.90;;;;;;5028810;28;20415;-73
2023/06/01 03:29:09;;;;;;;4.82;1.73;;;11.50;99.90;;;;;;5029080;28;20046;-73
2023/06/01 03:31:35;;;;;;;7.78;2.00;;;11.40;99.90;;;;;;5009660;28;20303;-73
2023/06/01 03:34:01;;;;;;;4.30;1.70;;;11.40;99.90;;;;;;5025914;28;20052;-73
2023/06/01 03:36:27;;;;;;;7.45;2.08;;;11.40;99.90;;;;;;5006377;28;20041;-73
2023/06/01 03:38:53;;;;;;;5.63;1.60;;;11.40;99.90;;;;;;5024353;28;20038;-73
2023/06/01 03:41:19;;;;;;;4.70;1.48;;;11.40;99.90;;;;;;5026034;28;20379;-73
2023/06/01 03:43:45;;;;;;;8.27;1.60;;;11.40;99.90;;;;;;5026759;28;20051;-73
2023/06/01 03:46:11;;;;;;;7.60;1.55;;;11.50;99.90;;;;;;5030177;28;20398;-73
2023/06/01 03:48:36;;;;;;;7.18;1.33;;;11.40;99.90;;;;;;5008057;28;20052;-73
2023/06/01 03:51:02;;;;;;;10.77;1.48;;;11.50;99.90;;;;;;5021506;28;20068;-72
2023/06/01 03:53:28;;;;;;;3.45;1.40;;;11.50;99.90;;;;;;5008810;28;20099;-73
2023/06/01 03:55:54;;;;;;;5.18;1.70;;;11.50;99.90;;;;;;5026925;28;20442;-73
2023/06/01 03:58:20;;;;;;;3.63;1.50;;;11.50;99.90;;;;;;5022635;28;20041;-73
2023/06/01 04:00:46;;;;;;;4.20;1.52;;;11.40;99.90;;;;;;5024487;28;20102;-73
2023/06/01 04:03:13;;;;;;;2.78;1.20;;;11.50;99.90;;;;;;5008209;28;20029;-72
2023/06/01 04:05:38;;;;;;;6.22;1.67;;;11.50;99.90;;;;;;5022394;28;20525;-72
2023/06/01 04:08:04;;;;;;;4.80;1.83;;;11.50;99.90;;;;;;5025788;28;20064;-72
2023/06/01 04:10:30;;;;;;;3.00;1.10;;;11.50;99.90;;;;;;5012104;28;20400;-73
2023/06/01 04:12:55;;;;;;;4.10;1.52;;;11.50;99.90;;;;;;5008370;28;20089;-72
2023/06/01 04:15:22;;;;;;;4.93;1.33;;;11.50;99.90;;;;;;5010226;28;20390;-72
2023/06/01 04:17:48;;;;;;;4.82;1.10;;;11.40;99.90;;;;;;5026564;28;20036;-72
2023/06/01 04:20:17;;;;;;;2.95;1.15;;;11.50;99.90;;;;;;5023656;28;20033;-72
2023/06/01 04:22:45;;;;;;;2.95;0.85;;;11.50;99.90;;;;;;5027274;28;20034;-72
2023/06/01 04:25:17;;;;;;;4.07;1.20;;;11.50;99.90;;;;;;5009080;28;20152;-73
2023/06/01 04:27:48;;;;;;;4.07;1.45;;;11.50;99.90;;;;;;5027177;28;20259;-72
2023/06/01 04:30:15;;;;;;;6.13;1.90;;;11.50;99.90;;;;;;5025604;28;20502;-72
2023/06/01 04:32:44;;;;;;;3.13;1.40;;;11.60;99.90;;;;;;5022661;28;20025;-72
2023/06/01 04:35:10;;;;;;;4.95;1.63;;;11.50;99.90;;;;;;5026848;28;20037;-72
2023/06/01 04:37:39;;;;;;;8.85;1.58;;;11.50;99.90;;;;;;5008965;28;20080;-72
2023/06/01 04:40:07;;;;;;;3.55;1.42;;;11.50;99.90;;;;;;5026620;28;20053;-72
2023/06/01 04:42:34;;;;;;;3.10;1.40;;;11.50;99.90;;;;;;5007575;28;20390;-72
2023/06/01 04:45:04;;;;;;;6.07;1.50;;;11.50;99.90;;;;;;5024867;28;20130;-73
2023/06/01 04:47:31;;;;;;;4.07;1.48;;;11.50;99.90;;;;;;5023979;28;20040;-73
2023/06/01 04:49:57;;;;;;;7.18;1.67;;;11.50;99.90;;;;;;5018733;28;20049;-72
2023/06/01 04:52:23;;;;;;;5.13;1.67;;;11.50;99.90;;;;;;5024069;28;20052;-72
2023/06/01 04:54:49;;;;;;;4.30;1.73;;;11.50;99.90;;;;;;5020251;28;20489;-73
2023/06/01 04:57:14;;;;;;;5.28;1.60;;;11.50;99.90;;;;;;5004943;28;20406;-73
2023/06/01 04:59:41;;;;;;;4.18;1.75;;;11.50;99.90;;;;;;5008731;28;20030;-73
2023/06/01 05:02:07;;;;;;;4.10;1.67;;;11.50;99.90;;;;;;5024066;28;20080;-73
2023/06/01 05:04:32;;;;;;;5.35;1.73;;;11.50;99.90;;;;;;5017554;28;20104;-73
2023/06/01 05:06:58;;;;;;;3.58;1.75;;;11.50;99.90;;;;;;5022373;28;20580;-72
2023/06/01 05:09:25;;;;;;;9.63;1.70;;;11.50;99.90;;;;;;5026134;28;20440;-73
2023/06/01 05:11:50;;;;;;;3.08;1.30;;;11.40;99.90;;;;;;5021215;28;20205;-73
2023/06/01 05:14:16;;;;;;;7.38;1.83;;;11.40;99.90;;;;;;5009069;28;20495;-73
2023/06/01 05:16:42;;;;;;;3.25;1.40;;;11.40;99.90;;;;;;5023325;28;20034;-73
2023/06/01 05:19:07;;;;;;;4.35;1.35;;;11.40;99.90;;;;;;5009155;28;20049;-73
2023/06/01 05:21:33;;;;;;;4.68;1.38;;;11.40;99.90;;;;;;5023527;28;20037;-73
2023/06/01 05:23:59;;;;;;;3.00;1.30;;;11.40;99.90;;;;;;5031011;28;20049;-73
2023/06/01 05:26:25;;;;;;;5.70;1.67;;;11.40;99.90;;;;;;5026772;28;20123;-73
2023/06/01 05:28:50;;;;;;;4.90;1.70;;;11.40;99.90;;;;;;5044251;28;20045;-73
2023/06/01 05:31:16;;;;;;;8.27;2.05;;;11.40;99.90;;;;;;5024335;28;20142;-72
2023/06/01 05:33:42;;;;;;;3.75;1.45;;;11.40;99.90;;;;;;5025475;28;20033;-73
2023/06/01 05:36:08;;;;;;;4.38;1.73;;;11.50;99.90;;;;;;5026798;28;20037;-73
2023/06/01 05:38:33;;;;;;;3.05;1.20;;;11.50;99.90;;;;;;5026766;28;20113;-73
2023/06/01 05:40:59;;;;;;;4.55;1.70;;;11.50;99.90;;;;;;5009071;28;20076;-73
2023/06/01 05:43:24;;;;;;;4.65;1.52;;;11.50;99.90;;;;;;5026019;28;20119;-73
2023/06/01 05:45:50;;;;;;;5.35;1.65;;;11.50;99.90;;;;;;5027514;28;20047;-73
2023/06/01 05:48:16;;;;;;;4.57;1.55;;;11.50;99.90;;;;;;5048008;28;20170;-73
2023/06/01 05:50:42;;;;;;;2.80;1.40;;;11.50;99.90;;;;;;5011689;28;20119;-73
2023/06/01 05:53:09;;;;;;;4.88;1.33;;;11.50;99.90;;;;;;5012513;28;21308;-73
2023/06/01 05:55:35;;;;;;;3.75;1.27;;;11.50;99.90;;;;;;5046289;28;20253;-73
2023/06/01 05:58:00;;;;;;;4.85;1.35;;;11.50;99.90;;;;;;5013073;28;20051;-73
2023/06/01 06:00:26;;;;;;;4.25;1.20;;;11.50;99.90;;;;;;5043598;28;20037;-73
2023/06/01 06:02:52;;;;;;;2.30;0.90;;;11.50;99.90;;;;;;5025737;28;20047;-73
2023/06/01 06:05:18;;;;;;;6.60;1.60;;;11.50;99.90;;;;;;5040202;28;20037;-73
2023/06/01 06:07:43;;;;;;;3.15;1.00;;;11.60;99.90;;;;;;5009034;28;20074;-73
2023/06/01 06:10:11;;;;;;;2.85;1.00;;;11.60;99.90;;;;;;5025803;28;20913;-73
2023/06/01 06:12:37;;;;;;;2.95;0.98;;;11.60;99.90;;;;;;5023122;28;20106;-73
2023/06/01 06:15:04;;;;;;;4.18;1.48;;;11.60;99.90;;;;;;5025858;28;20554;-73
2023/06/01 06:17:29;;;;;;;5.82;1.42;;;11.60;99.90;;;;;;5006549;28;20131;-73
2023/06/01 06:19:55;;;;;;;3.60;1.25;;;11.60;99.90;;;;;;5022023;28;20124;-73
2023/06/01 06:22:21;;;;;;;2.78;1.00;;;11.60;99.90;;;;;;5043703;28;20199;-73
2023/06/01 06:24:47;;;;;;;4.50;1.60;;;11.60;99.90;;;;;;5022904;28;20041;-73
2023/06/01 06:27:13;;;;;;;5.85;1.05;;;11.60;99.90;;;;;;5014821;28;20052;-72
2023/06/01 06:29:38;;;;;;;4.32;1.38;;;11.60;99.90;;;;;;5042023;28;20191;-73
2023/06/01 06:32:04;;;;;;;3.60;1.30;;;11.60;99.90;;;;;;5023729;28;20033;-73
2023/06/01 06:34:36;;;;;;;3.83;1.48;;;11.60;99.90;;;;;;5012871;28;20040;-72
2023/06/01 06:37:06;;;;;;;2.97;1.40;;;11.60;99.90;;;;;;5047556;28;20064;-73
2023/06/01 06:39:32;;;;;;;6.13;1.42;;;11.60;99.90;;;;;;5042094;28;20090;-72
2023/06/01 06:41:58;;;;;;;4.45;1.58;;;11.60;99.90;;;;;;5042456;28;20045;-73
2023/06/01 06:44:24;;;;;;;4.18;1.23;;;11.60;99.90;;;;;;5003067;28;20041;-73
2023/06/01 06:46:50;;;;;;;4.38;1.63;;;11.70;99.90;;;;;;5021127;28;20666;-73
2023/06/01 06:49:15;;;;;;;6.03;1.40;;;11.70;99.90;;;;;;5039442;28;20033;-73
2023/06/01 06:51:41;;;;;;;7.72;2.10;;;11.70;99.90;;;;;;5044887;28;20083;-73
2023/06/01 06:54:07;;;;;;;3.83;1.20;;;11.80;99.90;;;;;;5008033;28;20162;-73
2023/06/01 06:56:32;;;;;;;3.00;1.33;;;11.70;99.90;;;;;;5020508;28;20069;-73
2023/06/01 06:58:59;;;;;;;3.22;1.40;;;11.80;99.90;;;;;;5022773;28;20041;-73
2023/06/01 07:01:25;;;;;;;3.65;1.30;;;11.80;99.90;;;;;;5025432;28;20051;-73
2023/06/01 07:03:51;;;;;;;2.50;1.38;;;11.80;99.90;;;;;;5004728;28;20037;-73
2023/06/01 07:06:17;;;;;;;3.40;1.17;;;11.80;99.90;;;;;;5023675;28;20041;-73
2023/06/01 07:08:43;;;;;;;3.33;1.25;;;11.80;99.90;;;;;;5041384;28;20112;-73
2023/06/01 07:11:09;;;;;;;2.83;0.98;;;11.80;99.90;;;;;;5025358;28;20288;-73
2023/06/01 07:13:36;;;;;;;2.58;1.10;;;11.80;99.90;;;;;;5019744;28;20040;-73
2023/06/01 07:16:03;;;;;;;3.25;0.93;;;11.80;99.90;;;;;;5022892;28;20041;-72
2023/06/01 07:18:29;;;;;;;2.40;0.90;;;11.80;99.90;;;;;;5040768;28;20063;-73
2023/06/01 07:20:54;;;;;;;2.50;1.23;;;11.70;99.90;;;;;;5003626;28;20037;-73
2023/06/01 07:23:20;;;;;;;3.05;1.13;;;11.80;99.90;;;;;;5026732;28;20045;-73
2023/06/01 07:25:46;;;;;;;5.82;1.30;;;11.80;99.90;;;;;;5026507;28;20727;-73
2023/06/01 07:28:12;;;;;;;3.47;1.20;;;11.90;99.90;;;;;;5024874;28;20164;-71
2023/06/01 07:30:38;;;;;;;3.58;1.23;;;11.90;99.90;;;;;;5025491;28;20037;-71
2023/06/01 07:33:04;;;;;;;2.50;0.93;;;11.90;99.90;;;;;;5043027;28;20029;-73
2023/06/01 07:35:29;;;;;;;2.90;0.90;;;12.00;99.90;;;;;;5027719;28;20036;-73
2023/06/01 07:37:55;;;;;;;2.63;0.70;;;12.00;99.90;;;;;;5021440;28;20101;-73
2023/06/01 07:40:21;;;;;;;3.58;0.75;;;12.10;99.90;;;;;;5039424;28;20543;-73
2023/06/01 07:42:47;;;;;;;2.85;1.00;;;12.10;99.90;;;;;;5025188;28;20517;-73
2023/06/01 07:45:13;;;;;;;1.80;0.80;;;12.10;99.90;;;;;;5010194;28;20465;-74
2023/06/01 07:47:38;;;;;;;1.30;0.52;;;12.10;99.90;;;;;;5022975;28;20158;-73
2023/06/01 07:50:05;;;;;;;2.13;0.75;;;12.20;99.90;;;;;;5023016;28;20037;-74
2023/06/01 07:52:31;;;;;;;1.02;0.50;;;12.10;99.90;;;;;;5038699;28;20068;-73
2023/06/01 07:54:57;;;;;;;4.93;0.73;;;12.10;99.90;;;;;;5024163;28;20064;-73
2023/06/01 07:57:23;;;;;;;1.67;0.52;;;12.10;99.90;;;;;;5023544;28;20437;-73
2023/06/01 07:59:49;;;;;;;3.33;0.60;;;12.10;99.90;;;;;;5041173;28;20029;-73
2023/06/01 08:02:15;;;;;;;3.75;0.95;;;12.10;99.90;;;;;;5020405;28;20418;-73
2023/06/01 08:04:40;;;;;;;2.35;1.05;;;12.10;99.90;;;;;;5040834;28;20033;-73
2023/06/01 08:07:07;;;;;;;2.97;0.90;;;12.10;99.90;;;;;;5037829;28;20651;-73
2023/06/01 08:09:32;;;;;;;3.92;0.77;;;12.20;99.90;;;;;;5041995;28;20033;-73
2023/06/01 08:11:58;;;;;;;3.10;1.00;;;12.20;99.90;;;;;;5029114;28;20564;-72
2023/06/01 08:14:24;;;;;;;1.77;0.75;;;12.20;99.90;;;;;;5026780;28;20040;-74
2023/06/01 08:16:51;;;;;;;1.48;0.60;;;12.20;99.90;;;;;;5012369;28;20061;-74
2023/06/01 08:19:17;;;;;;;1.35;0.50;;;12.30;99.90;;;;;;5020786;28;20148;-73
2023/06/01 08:21:43;;;;;;;1.45;0.43;;;12.30;99.90;;;;;;4993275;28;20086;-71
2023/06/01 08:24:08;;;;;;;1.00;0.57;;;12.30;99.90;;;;;;5010985;28;20048;-73
2023/06/01 08:26:35;;;;;;;1.70;0.45;;;12.30;99.90;;;;;;5021081;28;20052;-74
2023/06/01 08:29:00;;;;;;;3.28;0.82;;;12.30;99.90;;;;;;5021707;28;20604;-73
2023/06/01 08:31:26;;;;;;;1.40;0.50;;;12.30;99.90;;;;;;5015258;28;20052;-73
2023/06/01 08:33:52;;;;;;;1.77;0.70;;;12.30;99.90;;;;;;5034787;28;20121;-73
2023/06/01 08:36:19;;;;;;;2.17;0.85;;;12.30;99.90;;;;;;5019700;28;20037;-73
2023/06/01 08:38:45;;;;;;;2.55;0.90;;;12.30;99.90;;;;;;5015852;28;20068;-72
2023/06/01 08:41:38;;;;;;;3.10;0.70;;;12.30;99.90;;;;;;5017060;28;20048;-73
2023/06/01 08:44:05;;;;;;;1.80;0.75;;;12.30;99.90;;;;;;5026667;28;20059;-73
2023/06/01 08:46:36;;;;;;;2.28;0.77;;;12.30;99.90;;;;;;5014125;28;20080;-73
2023/06/01 08:49:03;;;;;;;2.88;0.77;;;12.30;99.90;;;;;;5028939;28;20044;-73
2023/06/01 08:51:33;;;;;;;4.82;1.00;;;12.30;99.90;;;;;;5049084;28;20060;-72
2023/06/01 08:54:02;;;;;;;2.50;1.00;;;12.30;99.90;;;;;;5030258;28;20033;-73
2023/06/01 08:56:27;;;;;;;2.65;1.08;;;12.30;99.90;;;;;;5027073;28;20159;-73
2023/06/01 08:58:55;;;;;;;2.50;0.75;;;12.30;99.90;;;;;;5029351;28;20119;-73
2023/06/01 09:01:21;;;;;;;2.20;0.90;;;12.30;99.90;;;;;;5030895;28;20043;-73
2023/06/01 09:03:51;;;;;;;2.05;0.90;;;12.30;99.90;;;;;;5048209;28;20250;-73
2023/06/01 09:06:17;;;;;;;2.22;0.88;;;12.30;99.90;;;;;;5030895;28;20040;-73
2023/06/01 09:08:44;;;;;;;3.22;0.60;;;12.40;99.90;;;;;;5029816;28;20120;-73
2023/06/01 09:11:09;;;;;;;1.25;0.68;;;12.50;99.90;;;;;;5030483;28;20029;-73
2023/06/01 09:13:40;;;;;;;2.10;1.08;;;12.50;99.90;;;;;;5027396;28;20402;-73
2023/06/01 09:16:06;;;;;;;1.45;0.60;;;12.60;99.90;;;;;;5045472;28;20116;-73
2023/06/01 09:18:32;;;;;;;5.43;0.80;;;12.60;99.90;;;;;;5014175;28;20474;-73
2023/06/01 09:21:13;;;;;;;1.98;0.80;;;12.60;99.90;;;;;;5030500;28;20052;-72
2023/06/01 09:23:39;;;;;;;1.00;0.40;;;12.60;99.90;;;;;;5029254;28;20071;-73
2023/06/01 09:26:06;;;;;;;1.92;0.50;;;12.60;99.90;;;;;;5048748;28;20053;-73
2023/06/01 09:28:59;;;;;;;1.77;0.60;;;12.60;99.90;;;;;;5029557;28;20036;-73
2023/06/01 09:31:45;;;;;;;1.20;0.40;;;12.60;99.90;;;;;;5008483;28;20052;-73
2023/06/01 09:34:18;;;;;;;1.25;0.52;;;12.60;99.90;;;;;;5030087;28;20041;-73
2023/06/01 09:36:45;;;;;;;3.58;0.90;;;12.60;99.90;;;;;;5047541;28;20143;-73
2023/06/01 09:39:13;;;;;;;2.05;0.80;;;12.60;99.90;;;;;;5029015;28;20080;-73
2023/06/01 09:41:59;;;;;;;1.73;0.80;;;12.60;99.90;;;;;;5030002;28;20037;-73
2023/06/01 09:44:30;;;;;;;2.75;0.90;;;12.70;99.90;;;;;;5048209;28;20376;-73
2023/06/01 09:47:02;;;;;;;2.55;0.80;;;12.70;99.90;;;;;;5045275;28;20080;-72
2023/06/01 09:49:30;;;;;;;5.47;1.13;;;12.70;99.90;;;;;;5012406;28;20040;-73
2023/06/01 09:52:05;;;;;;;13.18;1.25;;;12.60;99.90;;;;;;5029908;28;20037;-72
2023/06/01 09:54:39;;;;;;;3.93;1.43;;;12.60;99.90;;;;;;5029400;28;20041;-73
2023/06/01 09:57:06;;;;;;;2.80;1.20;;;12.60;99.90;;;;;;5013319;28;20037;-73
2023/06/01 09:59:43;;;;;;;5.03;1.10;;;12.60;99.90;;;;;;5047931;28;20033;-73
2023/06/01 10:02:18;;;;;;;4.10;1.30;;;12.60;99.90;;;;;;5011645;28;20119;-73
2023/06/01 10:04:49;;;;;;;2.53;1.07;;;12.60;99.90;;;;;;5013402;28;20072;-73
2023/06/01 10:07:16;;;;;;;3.88;1.38;;;12.60;99.90;;;;;;5029957;28;20033;-73
2023/06/01 10:09:45;;;;;;;3.92;1.30;;;12.60;99.90;;;;;;5027946;28;20116;-73
2023/06/01 10:12:11;;;;;;;5.15;1.30;;;12.60;99.90;;;;;;5014157;28;20486;-73
2023/06/01 10:14:41;;;;;;;3.88;1.60;;;12.60;99.90;;;;;;5030083;28;20171;-73
2023/06/01 10:17:07;;;;;;;7.88;1.75;;;12.60;99.90;;;;;;5025228;28;20482;-73
2023/06/01 10:19:35;;;;;;;5.38;2.22;;;12.60;99.90;;;;;;5029477;28;20029;-73
2023/06/01 10:22:03;;;;;;;3.10;1.40;;;12.60;99.90;;;;;;5029695;28;20051;-73
2023/06/01 10:24:29;;;;;;;5.10;1.20;;;12.60;99.90;;;;;;5028148;28;20060;-73
2023/06/01 10:27:22;;;;;;;4.57;1.23;;;12.70;99.90;;;;;;5029713;28;20139;-73
2023/06/01 10:29:48;;;;;;;4.30;1.30;;;12.70;99.90;;;;;;5011371;28;20536;-73
2023/06/01 10:32:47;;;;;;;5.85;1.20;;;12.80;99.90;;;;;;5028619;28;20052;-73
2023/06/01 10:35:41;;;;;;;4.60;1.48;;;12.80;99.90;;;;;;5046847;28;20455;-72
2023/06/01 10:38:07;;;;;;;6.18;1.10;;;12.80;99.90;;;;;;5018229;28;20113;-72
2023/06/01 10:40:37;;;;;;;3.75;1.10;;;12.80;99.90;;;;;;5025911;28;20546;-72
2023/06/01 10:43:03;;;;;;;2.65;1.10;;;12.80;99.90;;;;;;5029690;28;20040;-73
2023/06/01 10:45:38;;;;;;;5.40;1.48;;;12.90;99.90;;;;;;5028180;28;20032;-73
2023/06/01 10:48:05;;;;;;;2.65;1.02;;;12.90;99.90;;;;;;5029674;28;20414;-73
2023/06/01 10:50:30;;;;;;;5.07;1.00;;;12.90;99.90;;;;;;5041819;28;20037;-73
2023/06/01 10:53:16;;;;;;;2.50;0.95;;;12.90;99.90;;;;;;5026605;28;20044;-73
2023/06/01 10:55:42;;;;;;;2.65;1.05;;;12.90;99.90;;;;;;5026608;28;20029;-73
2023/06/01 10:58:22;;;;;;;3.60;1.20;;;12.90;99.90;;;;;;5013229;28;20037;-73
2023/06/01 11:00:48;;;;;;;3.15;0.98;;;12.90;99.90;;;;;;5045470;28;20033;-73
2023/06/01 11:03:14;;;;;;;4.18;0.95;;;13.00;99.90;;;;;;5046877;28;20044;-73
2023/06/01 11:05:40;;;;;;;1.70;0.82;;;13.00;99.90;;;;;;5047246;28;20041;-73
2023/06/01 11:08:30;;;;;;;7.28;1.50;;;13.00;99.90;;;;;;5031728;28;20051;-72
2023/06/01 11:10:57;;;;;;;2.90;0.98;;;13.10;99.90;;;;;;5027843;28;20043;-73
2023/06/01 11:13:34;;;;;;;4.30;1.38;;;13.10;99.90;;;;;;5027344;28;20048;-72
2023/06/01 11:16:20;;;;;;;2.53;1.23;;;13.10;99.90;;;;;;5028130;28;20033;-74
2023/06/01 11:18:57;;;;;;;5.05;1.05;;;13.20;99.90;;;;;;5047059;28;20133;-73
2023/06/01 11:21:24;;;;;;;3.72;2.20;;;13.20;99.90;;;;;;5048724;28;20384;-75
2023/06/01 11:23:51;;;;;;;4.72;1.45;;;13.30;99.90;;;;;;5009298;28;20064;-74
2023/06/01 11:26:19;;;;;;;3.65;1.02;;;13.40;99.90;;;;;;5025838;28;20088;-74
2023/06/01 11:28:46;;;;;;;4.57;1.20;;;13.50;99.90;;;;;;5042997;28;20040;-74
2023/06/01 11:31:14;;;;;;;3.58;1.25;;;13.50;99.90;;;;;;5014010;28;20128;-74
2023/06/01 11:33:40;;;;;;;2.90;1.35;;;13.60;99.90;;;;;;5025913;28;20033;-73
2023/06/01 11:36:07;;;;;;;3.13;1.20;;;13.60;99.90;;;;;;5029387;28;20289;-74
2023/06/01 11:38:39;;;;;;;3.40;1.52;;;13.60;99.90;;;;;;5028184;28;20036;-74
2023/06/01 11:41:06;;;;;;;5.68;1.17;;;13.60;99.90;;;;;;5011177;28;20550;-73
2023/06/01 11:43:32;;;;;;;3.45;1.13;;;13.70;99.90;;;;;;5042962;28;20405;-73
2023/06/01 11:46:06;;;;;;;4.70;1.30;;;13.70;99.90;;;;;;5023778;28;20037;-73
2023/06/01 11:48:33;;;;;;;3.67;1.60;;;13.80;99.90;;;;;;5026405;28;20041;-73
2023/06/01 11:51:03;;;;;;;3.75;1.30;;;13.80;99.90;;;;;;5046407;28;20072;-73
2023/06/01 11:53:32;;;;;;;4.13;1.30;;;13.80;99.90;;;;;;5015935;28;20481;-73
2023/06/01 11:55:58;;;;;;;4.50;1.40;;;13.80;99.90;;;;;;5029474;28;20040;-73
2023/06/01 11:58:29;;;;;;;3.10;1.38;;;13.80;99.90;;;;;;5031906;28;20055;-77
2023/06/01 12:00:55;;;;;;;1.73;0.90;;;13.90;99.90;;;;;;5042876;28;20264;-73
2023/06/01 12:03:24;;;;;;;4.05;1.40;;;13.90;99.90;;;;;;5013090;28;20036;-73
2023/06/01 12:05:50;;;;;;;5.13;1.40;;;13.90;99.90;;;;;;5031797;28;20057;-72
2023/06/01 12:08:18;;;;;;;5.38;1.63;;;13.80;99.90;;;;;;5048828;28;20398;-73
2023/06/01 12:10:48;;;;;;;6.97;1.35;;;13.80;99.90;;;;;;5031703;28;20041;-73
2023/06/01 12:13:15;;;;;;;4.85;1.33;;;13.80;99.90;;;;;;5014598;28;20374;-73
2023/06/01 12:15:41;;;;;;;3.20;1.45;;;13.70;99.90;;;;;;5011954;28;20064;-73
2023/06/01 12:18:08;;;;;;;3.50;1.40;;;13.70;99.90;;;;;;5048751;28;20043;-73
2023/06/01 12:20:43;;;;;;;4.35;1.40;;;13.80;99.90;;;;;;5030934;28;20032;-73
2023/06/01 12:23:14;;;;;;;3.58;1.20;;;13.70;99.90;;;;;;5031167;28;20033;-73
2023/06/01 12:25:55;;;;;;;3.53;1.20;;;13.70;99.90;;;;;;5025146;28;21619;-73
2023/06/01 12:28:21;;;;;;;3.78;1.17;;;13.70;99.90;;;;;;5031934;28;20072;-73
2023/06/01 12:30:48;;;;;;;2.63;1.30;;;13.70;99.90;;;;;;5031494;28;20076;-73
2023/06/01 12:33:34;;;;;;;4.15;1.30;;;13.80;99.90;;;;;;5014408;28;20033;-73
2023/06/01 12:36:03;;;;;;;2.53;1.27;;;13.90;99.90;;;;;;5015605;28;20041;-73
2023/06/01 12:38:38;;;;;;;4.95;1.15;;;13.90;99.90;;;;;;5029193;28;20516;-73
2023/06/01 12:41:08;;;;;;;4.85;1.27;;;13.90;99.90;;;;;;5026106;28;20033;-73
2023/06/01 12:43:38;;;;;;;5.00;1.20;;;14.00;99.90;;;;;;5012630;28;20044;-73
2023/06/01 12:46:07;;;;;;;2.45;1.13;;;14.10;99.90;;;;;;5028966;28;20048;-73
2023/06/01 12:48:35;;;;;;;5.00;1.20;;;14.10;99.90;;;;;;5048944;28;20077;-72
2023/06/01 12:51:01;;;;;;;4.28;1.45;;;14.10;99.90;;;;;;5014548;28;20045;-73